Time;durP1;ratioP1;P1;durP2;ratioP2;P2;SDS_P1;SDS_P2;PMS_P1;PMS_P2;Temp;Humidity;BMP_temperature;BMP_pressure;BME280_temperature;BME280_humidity;BME280_pressure;Samples;Min_cycle;Max_cycle;Signal;HPM_P1;HPM_P2
2022/06/06 00:02:06;;;;;;;3.72;3.22;;;;;;;15.66;100.00;98997.34;4239383;33;20075;-68
2022/06/06 00:04:35;;;;;;;5.37;3.42;;;;;;;15.46;100.00;98972.00;4239894;33;20086;-68
2022/06/06 00:07:03;;;;;;;6.07;3.75;;;;;;;15.49;100.00;98965.97;4226826;33;20068;-68
2022/06/06 00:09:30;;;;;;;6.72;3.45;;;;;;;15.60;100.00;98997.38;4237741;33;20096;-69
2022/06/06 00:11:58;;;;;;;3.70;3.37;;;;;;;15.38;100.00;98986.13;4239529;33;20055;-68
2022/06/06 00:14:26;;;;;;;4.25;3.78;;;;;;;15.55;100.00;99019.09;4226796;33;20050;-68
2022/06/06 00:16:53;;;;;;;5.87;3.65;;;;;;;15.66;100.00;99024.47;4239408;33;20123;-68
2022/06/06 00:19:19;;;;;;;5.22;3.67;;;;;;;15.67;100.00;99020.66;4238940;33;20064;-68
2022/06/06 00:21:47;;;;;;;5.30;3.37;;;;;;;15.59;100.00;99012.03;4237889;33;20064;-68
2022/06/06 00:24:14;;;;;;;5.37;4.05;;;;;;;15.58;100.00;99015.81;4235954;33;20127;-68
2022/06/06 00:26:42;;;;;;;5.55;3.60;;;;;;;15.48;100.00;99017.84;4226763;33;20062;-68
2022/06/06 00:29:10;;;;;;;6.65;4.03;;;;;;;15.36;100.00;99007.31;4239593;33;20445;-68
2022/06/06 00:37:15;;;;;;;5.68;4.53;;;;;;;15.37;100.00;98998.91;4236889;33;20042;-69
2022/06/06 00:39:44;;;;;;;11.82;4.30;;;;;;;15.32;100.00;99009.00;4239106;33;20042;-68
2022/06/06 00:42:19;;;;;;;4.65;4.20;;;;;;;15.34;100.00;99018.44;4239214;33;20071;-68
2022/06/06 00:44:47;;;;;;;8.10;4.47;;;;;;;15.34;100.00;99013.03;4237650;33;20039;-68
2022/06/06 00:47:16;;;;;;;5.97;4.00;;;;;;;15.35;100.00;99030.09;4237407;33;20103;-69
2022/06/06 00:49:56;;;;;;;4.78;4.25;;;;;;;15.34;100.00;99023.88;4239384;33;20243;-68
2022/06/06 00:52:35;;;;;;;7.35;4.85;;;;;;;15.31;100.00;99007.34;4238676;33;20081;-68
2022/06/06 00:55:08;;;;;;;7.03;4.95;;;;;;;15.43;100.00;99026.81;4239965;33;20062;-69
2022/06/06 00:57:40;;;;;;;6.07;4.22;;;;;;;15.40;100.00;99032.81;4229490;33;20051;-68
2022/06/06 01:00:11;;;;;;;4.78;4.25;;;;;;;15.44;100.00;99028.41;4241962;33;20060;-69
2022/06/06 01:02:40;;;;;;;8.05;3.97;;;;;;;15.41;100.00;99024.38;4240352;33;20356;-69
2022/06/06 01:05:06;;;;;;;7.30;4.40;;;;;;;15.37;100.00;99019.78;4240754;33;20050;-69
2022/06/06 01:07:33;;;;;;;10.43;4.90;;;;;;;14.97;100.00;98983.69;4239809;33;20384;-68
2022/06/06 01:10:00;;;;;;;5.03;4.35;;;;;;;14.86;100.00;98974.81;4241550;33;20046;-68
2022/06/06 01:12:31;;;;;;;6.35;4.80;;;;;;;15.16;100.00;99005.56;4237655;33;20034;-68
2022/06/06 01:15:02;;;;;;;6.25;5.25;;;;;;;14.88;100.00;98968.00;4238386;33;20057;-68
2022/06/06 01:17:52;;;;;;;8.77;5.50;;;;;;;14.93;100.00;98958.22;4241675;33;20441;-68
2022/06/06 01:21:03;;;;;;;6.43;5.57;;;;;;;15.04;100.00;98960.59;4239795;33;20043;-69
2022/06/06 01:23:58;;;;;;;6.10;5.50;;;;;;;15.35;100.00;99002.97;4221321;33;20039;-69
2022/06/06 01:26:45;;;;;;;9.23;5.53;;;;;;;15.36;100.00;98999.19;4241906;33;20061;-68
2022/06/06 01:29:20;;;;;;;6.93;5.65;;;;;;;15.34;100.00;98995.94;4239546;33;20448;-68
2022/06/06 01:31:50;;;;;;;7.20;5.40;;;;;;;15.33;100.00;98995.09;4240905;33;20373;-69
2022/06/06 01:34:29;;;;;;;6.20;5.03;;;;;;;15.04;100.00;98948.94;4241234;33;20328;-68
2022/06/06 01:36:57;;;;;;;6.28;5.62;;;;;;;15.36;100.00;98982.91;4239290;33;20425;-69
2022/06/06 01:39:27;;;;;;;8.00;5.25;;;;;;;15.20;100.00;98971.34;4241376;33;20409;-69
2022/06/06 01:41:59;;;;;;;7.95;5.47;;;;;;;15.21;100.00;98981.91;4241347;33;20140;-69
2022/06/06 01:44:45;;;;;;;8.13;5.32;;;;;;;15.24;100.00;98985.97;4241300;33;20433;-69
2022/06/06 01:47:17;;;;;;;10.30;6.47;;;;;;;14.80;100.00;98917.09;4240975;33;20043;-69
2022/06/06 01:49:45;;;;;;;7.22;5.15;;;;;;;15.01;100.00;98977.44;4240075;33;20053;-69
2022/06/06 01:52:14;;;;;;;8.88;5.87;;;;;;;15.03;100.00;98969.00;4239020;33;20038;-69
2022/06/06 01:54:42;;;;;;;25.67;5.55;;;;;;;15.00;100.00;98975.00;4241347;33;20956;-69
2022/06/06 01:57:13;;;;;;;8.18;6.07;;;;;;;15.02;100.00;98978.25;4241063;33;20038;-68
2022/06/06 01:59:40;;;;;;;7.18;6.05;;;;;;;14.64;100.00;98939.94;4241453;33;20034;-68
2022/06/06 02:02:06;;;;;;;8.43;5.82;;;;;;;14.87;100.00;98976.41;4234160;33;20354;-69
2022/06/06 02:04:33;;;;;;;6.30;5.60;;;;;;;14.86;100.00;98975.59;4236502;33;20374;-69
2022/06/06 02:06:59;;;;;;;7.05;5.55;;;;;;;14.83;100.00;98978.88;4240390;33;20050;-68
2022/06/06 02:09:31;;;;;;;7.25;5.90;;;;;;;14.92;100.00;98989.13;4240835;33;20026;-69
2022/06/06 02:11:59;;;;;;;7.00;5.78;;;;;;;14.89;100.00;98982.38;4238886;33;20092;-69
2022/06/06 02:14:26;;;;;;;5.87;5.28;;;;;;;14.70;100.00;98972.16;4240836;33;20108;-68
2022/06/06 02:16:53;;;;;;;6.35;5.53;;;;;;;14.76;100.00;98981.09;4240527;33;20058;-68
2022/06/06 02:19:20;;;;;;;8.48;6.12;;;;;;;14.81;100.00;98972.94;4240523;33;20071;-69
2022/06/06 02:21:53;;;;;;;8.63;5.72;;;;;;;14.83;100.00;98987.00;4238969;33;20487;-70
2022/06/06 02:24:20;;;;;;;7.12;5.78;;;;;;;14.74;100.00;98988.66;4240432;33;20090;-69
2022/06/06 02:26:47;;;;;;;6.68;5.78;;;;;;;14.63;100.00;98970.84;4240159;33;20046;-69
2022/06/06 02:29:13;;;;;;;10.85;6.30;;;;;;;14.67;100.00;98988.16;4240924;33;20612;-69
2022/06/06 02:31:39;;;;;;;11.45;5.97;;;;;;;14.48;100.00;98958.94;4238343;33;20454;-69
2022/06/06 02:34:07;;;;;;;6.95;5.57;;;;;;;14.38;100.00;98931.09;4239956;33;20054;-69
2022/06/06 02:36:35;;;;;;;7.22;6.35;;;;;;;14.64;100.00;98972.47;4240371;33;20586;-68
2022/06/06 02:39:02;;;;;;;6.65;5.55;;;;;;;14.41;100.00;98936.78;4226507;33;20050;-68
2022/06/06 02:41:28;;;;;;;5.68;5.05;;;;;;;14.27;100.00;98927.63;4239874;33;20042;-69
2022/06/06 02:43:56;;;;;;;9.35;5.82;;;;;;;14.44;100.00;98946.22;4238524;33;20208;-69
2022/06/06 02:46:23;;;;;;;10.80;5.30;;;;;;;14.64;100.00;98984.09;4240599;33;20046;-69
2022/06/06 02:48:49;;;;;;;10.55;6.53;;;;;;;14.73;100.00;98987.06;4240227;33;20418;-68
2022/06/06 02:51:15;;;;;;;6.65;5.93;;;;;;;14.70;100.00;98990.31;4236377;33;20052;-69
2022/06/06 02:53:42;;;;;;;8.55;6.30;;;;;;;14.56;100.00;98991.97;4237078;33;20050;-69
2022/06/06 02:56:08;;;;;;;11.82;5.65;;;;;;;14.70;100.00;98998.47;4240217;33;20080;-68
2022/06/06 02:58:34;;;;;;;11.63;6.30;;;;;;;14.73;100.00;98981.66;4240244;33;20068;-68
2022/06/06 03:01:06;;;;;;;9.93;7.20;;;;;;;14.74;100.00;98988.66;4239104;33;20050;-68
2022/06/06 03:03:34;;;;;;;7.53;5.57;;;;;;;14.69;100.00;98986.00;4238134;33;20046;-69
2022/06/06 03:06:08;;;;;;;12.90;5.90;;;;;;;14.76;100.00;98985.69;4239940;33;20434;-68
2022/06/06 03:08:41;;;;;;;13.57;6.15;;;;;;;14.92;100.00;98989.13;4239663;33;20038;-68
2022/06/06 03:11:22;;;;;;;7.82;6.37;;;;;;;14.49;100.00;98949.75;4239610;33;20058;-69
2022/06/06 03:14:09;;;;;;;7.65;5.68;;;;;;;14.86;100.00;98986.44;4239909;33;20060;-68
2022/06/06 03:23:08;;;;;;;7.05;5.85;;;;;;;15.06;100.00;99000.97;4238397;33;20084;-68
2022/06/06 03:25:53;;;;;;;5.75;5.15;;;;;;;15.19;100.00;98994.94;4237717;33;20058;-68
2022/06/06 03:28:52;;;;;;;6.65;5.45;;;;;;;15.13;100.00;98973.56;4239864;33;20080;-68
2022/06/06 03:31:52;;;;;;;6.18;5.53;;;;;;;15.39;100.00;98990.47;4239023;33;20483;-68
2022/06/06 03:34:24;;;;;;;7.12;5.28;;;;;;;15.47;100.00;98979.00;4235843;33;20373;-68
2022/06/06 03:37:15;;;;;;;6.95;5.57;;;;;;;15.52;100.00;98984.41;4239214;33;20164;-69
2022/06/06 03:40:05;;;;;;;5.32;4.72;;;;;;;15.42;100.00;98981.78;4239856;33;20055;-68
2022/06/06 03:43:00;;;;;;;11.43;5.60;;;;;;;15.50;100.00;98994.72;4199511;34;20082;-68
2022/06/06 03:45:41;;;;;;;7.80;5.57;;;;;;;15.49;100.00;98998.53;4223181;34;20076;-69
2022/06/06 03:48:35;;;;;;;6.47;5.50;;;;;;;15.11;100.00;98916.91;4225626;34;20421;-68
2022/06/06 03:51:20;;;;;;;6.55;5.00;;;;;;;15.84;100.00;98993.13;4223724;34;20063;-69
2022/06/06 03:53:53;;;;;;;5.20;4.70;;;;;;;15.53;100.00;98942.63;4224901;34;20081;-69
2022/06/06 03:56:28;;;;;;;6.72;4.47;;;;;;;15.98;100.00;98988.66;4225938;34;20047;-69
2022/06/06 03:58:56;;;;;;;5.37;4.80;;;;;;;15.64;100.00;98945.25;4238648;33;20111;-69
2022/06/06 04:01:23;;;;;;;6.12;4.93;;;;;;;15.85;100.00;98990.13;4237484;33;20084;-69
2022/06/06 04:03:52;;;;;;;6.87;5.07;;;;;;;15.66;100.00;98943.06;4225476;34;20393;-69
2022/06/06 04:06:19;;;;;;;6.10;5.50;;;;;;;16.00;100.00;98980.22;4224045;34;20063;-68
2022/06/06 04:08:45;;;;;;;6.32;4.00;;;;;;;16.05;100.00;98983.72;4223104;34;20043;-69
2022/06/06 04:11:12;;;;;;;9.52;5.10;;;;;;;16.09;100.00;98986.66;4224685;34;20176;-69
2022/06/06 04:14:17;;;;;;;8.48;5.07;;;;;;;16.00;100.00;99001.94;4225422;34;20059;-69
2022/06/06 04:17:03;;;;;;;5.35;4.85;;;;;;;15.89;100.00;98980.34;4201299;34;20068;-68
2022/06/06 04:19:57;;;;;;;5.82;4.25;;;;;;;16.13;100.00;99006.69;4237004;33;20394;-69
2022/06/06 04:22:46;;;;;;;12.73;5.62;;;;;;;16.22;100.00;99010.41;4239026;33;20072;-69
2022/06/06 04:25:34;;;;;;;6.10;4.78;;;;;;;16.31;100.00;99011.41;4232770;33;20046;-69
2022/06/06 04:28:36;;;;;;;6.87;4.60;;;;;;;16.38;100.00;99002.91;4237108;33;20072;-69
2022/06/06 04:31:08;;;;;;;6.85;4.32;;;;;;;16.31;100.00;98970.66;4240565;33;20050;-69
2022/06/06 04:33:57;;;;;;;6.80;4.85;;;;;;;16.47;100.00;99001.19;4229104;33;20123;-69
2022/06/06 04:37:04;;;;;;;8.30;4.82;;;;;;;16.46;100.00;99004.19;4241453;33;20062;-68
2022/06/06 04:40:00;;;;;;;13.07;4.78;;;;;;;16.54;100.00;98984.53;4232246;33;20054;-69
2022/06/06 04:42:44;;;;;;;8.25;4.65;;;;;;;16.59;100.00;98979.00;4240697;33;20430;-69
2022/06/06 04:45:14;;;;;;;4.68;4.32;;;;;;;16.45;100.00;98953.66;4238099;33;20494;-71
2022/06/06 04:47:42;;;;;;;7.05;4.43;;;;;;;16.52;100.00;98992.16;4241220;33;20068;-69
2022/06/06 04:50:12;;;;;;;6.97;4.12;;;;;;;16.57;100.00;99002.97;4241898;33;20076;-68
2022/06/06 04:52:42;;;;;;;8.18;5.10;;;;;;;16.62;100.00;99002.91;4229393;33;20046;-68
2022/06/06 04:55:10;;;;;;;5.15;4.65;;;;;;;16.75;100.00;99001.38;4239816;33;20068;-68
2022/06/06 04:57:40;;;;;;;6.43;4.43;;;;;;;16.27;100.00;98937.00;4241499;33;20031;-68
2022/06/06 05:00:07;;;;;;;6.53;5.10;;;;;;;16.74;100.00;98996.25;4240332;33;20050;-69
2022/06/06 05:02:35;;;;;;;7.87;4.20;;;;;;;16.78;100.00;98994.56;4240639;33;20064;-68
2022/06/06 05:05:09;;;;;;;13.35;5.40;;;;;;;16.87;100.00;99009.16;4239751;33;20061;-68
2022/06/06 05:07:42;;;;;;;6.03;4.37;;;;;;;16.94;100.00;99001.44;4241375;33;20084;-68
2022/06/06 05:10:11;;;;;;;7.05;4.60;;;;;;;17.22;100.00;99007.06;4241283;33;20335;-70
2022/06/06 05:13:02;;;;;;;10.75;4.15;;;;;;;17.25;100.00;99006.47;4225451;34;20446;-67
2022/06/06 05:16:01;;;;;;;9.20;4.37;;;;;;;17.42;100.00;99014.09;4240385;33;20034;-70
2022/06/06 05:18:50;;;;;;;7.37;4.62;;;;;;;17.54;100.00;99008.22;4216193;33;20054;-69
2022/06/06 05:21:44;;;;;;;6.72;4.37;;;;;;;17.26;100.00;98975.44;4240173;33;20481;-69
2022/06/06 05:24:17;;;;;;;11.27;4.97;;;;;;;17.56;100.00;99003.28;4239228;33;20038;-67
2022/06/06 05:27:14;;;;;;;5.75;4.43;;;;;;;17.78;100.00;99002.66;4241689;33;20038;-69
2022/06/06 05:30:01;;;;;;;7.60;4.40;;;;;;;17.64;100.00;98994.44;4240187;33;20069;-69
2022/06/06 05:33:03;;;;;;;6.25;4.40;;;;;;;17.79;100.00;99002.37;4238957;33;20049;-70
2022/06/06 05:35:42;;;;;;;5.70;4.10;;;;;;;17.92;100.00;98989.91;4237257;33;20050;-69
2022/06/06 05:38:38;;;;;;;8.02;4.45;;;;;;;18.00;100.00;98996.59;4239369;33;20053;-68
2022/06/06 05:41:17;;;;;;;7.07;4.60;;;;;;;18.15;100.00;98996.31;4240951;33;20090;-68
2022/06/06 05:43:56;;;;;;;8.52;4.53;;;;;;;18.00;100.00;98969.34;4240124;33;20043;-69
2022/06/06 05:46:29;;;;;;;7.90;4.35;;;;;;;18.26;100.00;98993.41;4241561;33;20046;-69
2022/06/06 05:48:58;;;;;;;8.20;4.53;;;;;;;18.60;100.00;98993.00;4241209;33;20074;-68
2022/06/06 05:51:58;;;;;;;9.40;4.70;;;;;;;18.57;100.00;98998.25;4238293;33;20106;-68
2022/06/06 05:54:46;;;;;;;6.55;4.12;;;;;;;18.46;100.00;98954.84;4239189;33;20414;-68
2022/06/06 05:57:34;;;;;;;14.05;3.80;;;;;;;18.71;100.00;98988.16;4239000;33;20062;-68
2022/06/06 06:00:18;;;;;;;4.40;3.80;;;;;;;18.95;100.00;98992.59;4226301;34;20424;-68
2022/06/06 06:03:20;;;;;;;4.75;4.25;;;;;;;18.93;100.00;98989.38;4223990;33;20063;-69
2022/06/06 06:06:01;;;;;;;4.75;4.25;;;;;;;19.04;100.00;98985.31;4223193;34;20066;-69
2022/06/06 06:08:37;;;;;;;;;;;;;;;19.04;100.00;98971.66;4225679;34;20063;-69
2022/06/06 06:11:29;;;;;;;9.40;3.90;;;;;;;19.05;100.00;98973.25;4223632;34;19964;-70
2022/06/06 06:14:42;;;;;;;11.95;4.30;;;;;;;19.09;100.00;98977.00;4223452;34;20088;-69
2022/06/06 06:17:11;;;;;;;5.20;4.03;;;;;;;19.13;100.00;98975.28;4199325;34;20087;-69
2022/06/06 06:20:03;;;;;;;12.73;4.57;;;;;;;19.22;100.00;98970.69;4225637;34;20034;-69
2022/06/06 06:23:11;;;;;;;6.10;3.95;;;;;;;19.29;100.00;98974.91;4226358;34;20047;-69
2022/06/06 06:25:40;;;;;;;7.97;4.22;;;;;;;19.35;100.00;98973.69;4225088;34;20047;-69
2022/06/06 06:28:10;;;;;;;13.60;4.35;;;;;;;19.39;100.00;98953.62;4232418;33;20086;-69
2022/06/06 06:30:51;;;;;;;9.70;4.03;;;;;;;19.60;100.00;98978.50;4240935;33;20042;-68
2022/06/06 06:33:36;;;;;;;4.50;4.12;;;;;;;19.62;100.00;98978.22;4238203;33;20064;-70
2022/06/06 06:36:08;;;;;;;13.25;4.18;;;;;;;19.82;100.00;98982.41;4240159;33;20072;-69
2022/06/06 06:38:35;;;;;;;9.93;4.45;;;;;;;19.62;100.00;98950.09;4240270;33;20090;-68
2022/06/06 06:41:31;;;;;;;7.68;4.32;;;;;;;19.71;100.00;98979.06;4240358;33;20060;-69
2022/06/06 06:44:14;;;;;;;4.93;3.97;;;;;;;19.66;100.00;98962.03;4240947;33;20115;-69
2022/06/06 06:46:46;;;;;;;6.95;3.83;;;;;;;19.91;100.00;98969.59;4238359;33;20039;-69
2022/06/06 06:49:33;;;;;;;9.90;4.95;;;;;;;20.08;100.00;98974.31;4239866;33;20067;-68
2022/06/06 06:52:24;;;;;;;6.55;4.20;;;;;;;19.96;100.00;98974.13;4231830;33;20367;-69
2022/06/06 06:55:12;;;;;;;8.48;4.12;;;;;;;19.81;100.00;98977.25;4226557;34;20064;-68
2022/06/06 06:57:57;;;;;;;6.55;4.47;;;;;;;19.93;100.00;98972.81;4225086;34;20050;-70
2022/06/06 07:00:25;;;;;;;5.95;4.00;;;;;;;19.90;100.00;98986.31;4226334;34;20369;-69
2022/06/06 07:09:19;;;;;;;15.02;4.50;;;;;;;19.87;100.00;98949.47;4226323;33;20042;-68
2022/06/06 07:12:19;;;;;;;7.47;4.40;;;;;;;20.16;100.00;98975.50;4238525;33;20064;-68
2022/06/06 07:15:07;;;;;;;4.30;4.00;;;;;;;20.06;100.00;98975.78;4238712;33;20078;-68
2022/06/06 07:17:42;;;;;;;4.28;3.87;;;;;;;19.86;100.00;98975.16;4237262;33;20035;-69
2022/06/06 07:20:12;;;;;;;3.62;3.40;;;;;;;19.57;100.00;98931.91;4238053;33;20072;-68
2022/06/06 07:23:00;;;;;;;8.88;4.68;;;;;;;19.88;100.00;98980.31;4236774;33;20149;-68
2022/06/06 07:25:29;;;;;;;6.90;3.90;;;;;;;20.10;100.00;98974.84;4238084;33;20068;-68
2022/06/06 07:27:56;;;;;;;5.53;4.07;;;;;;;20.21;100.00;98967.16;4239033;33;20046;-68
2022/06/06 07:30:23;;;;;;;10.75;3.80;;;;;;;20.26;100.00;98936.97;4238493;33;20460;-68
2022/06/06 07:33:14;;;;;;;6.30;3.47;;;;;;;20.58;100.00;98959.56;4236239;33;20068;-69
2022/06/06 07:36:13;;;;;;;9.23;3.78;;;;;;;20.44;100.00;98931.53;4239250;33;20054;-68
2022/06/06 07:38:55;;;;;;;5.00;3.58;;;;;;;20.57;100.00;98963.44;4237028;33;20136;-69
2022/06/06 07:41:28;;;;;;;;;;;;;;;20.83;100.00;98962.69;4238252;33;20054;-69
2022/06/06 07:44:18;;;;;;;5.78;3.40;;;;;;;20.77;100.00;98955.75;4237803;33;19938;-69
2022/06/06 07:47:10;;;;;;;6.37;3.55;;;;;;;20.78;100.00;98957.37;4239739;33;20086;-68
2022/06/06 07:49:59;;;;;;;9.40;3.53;;;;;;;20.97;100.00;98962.56;4227258;33;20049;-72
2022/06/06 07:52:44;;;;;;;10.25;3.20;;;;;;;20.80;100.00;98968.81;4239744;33;20167;-72
2022/06/06 07:55:22;;;;;;;3.55;3.33;;;;;;;20.81;100.00;98959.50;4239591;33;20088;-71
2022/06/06 07:58:04;;;;;;;4.37;2.83;;;;;;;20.93;100.00;98964.31;4237986;33;20117;-68
2022/06/06 08:00:31;;;;;;;10.63;3.08;;;;;;;21.21;100.00;98956.63;4238605;33;20072;-68
2022/06/06 08:03:20;;;;;;;4.18;3.12;;;;;;;21.22;100.00;98944.53;4238577;33;20443;-69
2022/06/06 08:06:16;;;;;;;5.85;2.90;;;;;;;21.44;100.00;98945.50;4237952;33;20046;-70
2022/06/06 08:09:05;;;;;;;5.30;2.70;;;;;;;21.59;100.00;98932.13;4239958;33;20075;-69
2022/06/06 08:12:08;;;;;;;3.03;2.55;;;;;;;21.45;100.00;98947.91;4239263;33;20038;-69
2022/06/06 08:15:07;;;;;;;7.90;2.50;;;;;;;21.52;100.00;98948.25;4238510;33;20097;-70
2022/06/06 08:18:01;;;;;;;3.80;2.75;;;;;;;21.58;100.00;98940.66;4239491;33;20049;-68
2022/06/06 08:20:44;;;;;;;5.28;2.90;;;;;;;21.82;100.00;98948.34;4239258;33;20068;-68
2022/06/06 08:23:13;;;;;;;8.88;2.85;;;;;;;21.79;100.00;98937.25;4242092;33;20444;-67
2022/06/06 08:25:43;;;;;;;7.47;3.87;;;;;;;21.61;100.00;98940.00;4244583;33;20147;-71
2022/06/06 08:28:11;;;;;;;3.53;2.95;;;;;;;21.48;100.00;98913.59;4244934;33;20473;-69
2022/06/06 08:30:41;;;;;;;6.32;2.55;;;;;;;21.76;100.00;98953.22;4243491;33;20377;-68
2022/06/06 08:33:07;;;;;;;7.68;2.50;;;;;;;21.95;100.00;98939.13;4240508;33;20054;-70
2022/06/06 08:35:49;;;;;;;3.08;2.78;;;;;;;22.05;100.00;98927.00;4239334;33;20034;-69
2022/06/06 08:38:55;;;;;;;5.35;3.20;;;;;;;22.18;100.00;98924.34;4238659;33;20441;-70
2022/06/06 08:41:37;;;;;;;4.05;2.45;;;;;;;22.36;100.00;98930.59;4221140;33;20043;-71
2022/06/06 08:44:19;;;;;;;4.20;3.28;;;;;;;22.37;100.00;98922.03;4238920;33;20094;-70
2022/06/06 08:46:51;;;;;;;2.92;2.70;;;;;;;22.16;100.00;98882.75;4237746;33;20070;-70
2022/06/06 08:52:54;;;;;;;3.47;2.67;;;;;;;22.36;100.00;98887.50;4227830;33;20042;-69
2022/06/06 08:55:53;;;;;;;10.65;2.62;;;;;;;22.28;100.00;98882.84;4225698;34;20527;-69
2022/06/06 08:58:41;;;;;;;2.92;2.70;;;;;;;22.56;100.00;98885.94;4212749;34;20365;-70
2022/06/06 09:01:49;;;;;;;8.25;3.62;;;;;;;22.62;100.00;98889.28;4223745;34;20055;-69
2022/06/06 09:04:37;;;;;;;8.30;2.75;;;;;;;22.44;100.00;98916.81;4218445;34;20100;-70
2022/06/06 09:07:22;;;;;;;2.90;2.70;;;;;;;22.81;100.00;98919.81;4236733;33;20187;-69
2022/06/06 09:09:55;;;;;;;4.93;4.50;;;;;;;22.96;100.00;98920.34;4224605;33;20023;-70
2022/06/06 09:12:37;;;;;;;9.15;2.67;;;;;;;22.77;100.00;98923.56;4237721;33;20067;-70
2022/06/06 09:15:11;;;;;;;3.03;2.75;;;;;;;22.87;100.00;98911.41;4239106;33;20080;-70
2022/06/06 09:18:05;;;;;;;4.07;3.05;;;;;;;22.60;100.00;98903.34;4237925;33;20041;-72
2022/06/06 09:20:56;;;;;;;2.95;2.62;;;;;;;22.66;100.00;98893.78;4240592;33;20050;-70
2022/06/06 09:23:47;;;;;;;3.45;2.70;;;;;;;22.82;100.00;98912.41;4239967;33;20066;-70
2022/06/06 09:26:28;;;;;;;2.80;2.60;;;;;;;23.18;100.00;98906.31;4240321;33;20072;-70
2022/06/06 09:29:13;;;;;;;8.75;2.95;;;;;;;23.18;100.00;98905.50;4239065;33;20127;-70
2022/06/06 09:31:45;;;;;;;4.07;3.65;;;;;;;22.55;100.00;98826.72;4227567;33;20096;-70
2022/06/06 09:34:15;;;;;;;4.95;3.05;;;;;;;22.81;100.00;98853.94;4235568;33;20072;-70
2022/06/06 09:37:06;;;;;;;3.17;2.97;;;;;;;23.28;100.00;98890.53;4228349;33;20785;-70
2022/06/06 09:39:55;;;;;;;4.10;2.65;;;;;;;23.49;100.00;98894.06;4239821;33;20046;-72
2022/06/06 09:42:43;;;;;;;3.17;2.97;;;;;;;23.07;100.00;98850.19;4238991;33;20042;-70
2022/06/06 09:45:10;;;;;;;3.62;3.33;;;;;;;23.08;100.00;98876.53;4240404;33;20068;-70
2022/06/06 09:48:08;;;;;;;5.37;2.90;;;;;;;23.00;100.00;98844.44;4238075;33;20072;-70
2022/06/06 09:50:50;;;;;;;3.10;2.78;;;;;;;23.25;100.00;98844.53;4240371;33;20059;-69
2022/06/06 09:53:30;;;;;;;7.10;2.87;;;;;;;23.36;100.00;98878.69;4240255;33;20046;-70
2022/06/06 09:59:30;;;;;;;3.87;2.65;;;;;;;23.56;100.00;98877.81;4238167;33;20068;-69
2022/06/06 10:02:24;;;;;;;3.10;2.80;;;;;;;24.02;100.00;98871.50;4238954;33;20058;-69
2022/06/06 10:05:02;;;;;;;3.33;3.12;;;;;;;23.93;100.00;98890.84;4240086;33;20064;-69
2022/06/06 10:08:02;;;;;;;3.58;3.33;;;;;;;23.91;100.00;98882.94;4238589;33;20047;-68
2022/06/06 10:11:07;;;;;;;3.42;3.12;;;;;;;23.93;100.00;98886.16;4239609;33;20076;-68
2022/06/06 10:13:45;;;;;;;3.65;3.35;;;;;;;23.95;100.00;98888.56;4238624;33;20051;-68
2022/06/06 10:16:34;;;;;;;3.55;3.35;;;;;;;24.21;100.00;98890.97;4237521;33;20055;-68
2022/06/06 10:19:33;;;;;;;3.53;2.80;;;;;;;24.08;100.00;98843.44;4238489;33;20388;-69
2022/06/06 10:22:20;;;;;;;3.75;3.33;;;;;;;24.75;100.00;98880.84;4238844;33;20061;-69
2022/06/06 10:25:01;;;;;;;6.37;3.75;;;;;;;24.81;100.00;98868.44;4239457;33;20090;-68
2022/06/06 10:28:06;;;;;;;4.18;3.72;;;;;;;24.47;100.00;98848.53;4237198;33;20063;-68
2022/06/06 10:31:10;;;;;;;5.22;3.62;;;;;;;24.16;100.00;98871.97;4236922;33;20058;-70
2022/06/06 10:33:39;;;;;;;3.70;3.50;;;;;;;24.14;100.00;98873.44;4217794;33;20103;-68
2022/06/06 10:36:22;;;;;;;5.72;3.47;;;;;;;24.44;100.00;98882.25;4237624;33;20068;-67
2022/06/06 10:39:03;;;;;;;5.28;3.28;;;;;;;24.76;100.00;98876.94;4238404;33;20088;-67
2022/06/06 10:41:54;;;;;;;5.78;3.67;;;;;;;24.63;100.00;98873.41;4224678;34;20054;-70
2022/06/06 10:44:37;;;;;;;5.20;3.83;;;;;;;24.97;100.00;98861.06;4226886;34;20165;-68
2022/06/06 10:47:16;;;;;;;4.25;3.75;;;;;;;24.78;100.00;98863.63;4222928;34;20046;-68
2022/06/06 10:49:59;;;;;;;5.00;3.37;;;;;;;24.72;100.00;98876.84;4226260;34;20042;-68
2022/06/06 10:53:05;;;;;;;6.30;4.10;;;;;;;24.90;100.00;98838.81;4224715;33;20094;-70
2022/06/06 10:55:48;;;;;;;5.60;3.60;;;;;;;24.62;100.00;98828.59;4226516;34;20365;-68
2022/06/06 10:58:52;;;;;;;4.12;3.72;;;;;;;25.11;100.00;98832.28;4225747;34;20207;-67
2022/06/06 11:01:30;;;;;;;7.53;4.28;;;;;;;25.53;100.00;98870.47;4225027;34;20046;-71
2022/06/06 11:04:03;;;;;;;9.65;3.67;;;;;;;25.93;100.00;98863.97;4225811;34;20065;-68
2022/06/06 11:07:07;;;;;;;6.22;3.42;;;;;;;25.99;100.00;98832.25;4226358;34;20418;-68
2022/06/06 11:09:49;;;;;;;4.57;4.28;;;;;;;25.98;100.00;98869.25;4226528;34;20050;-67
2022/06/06 11:12:29;;;;;;;5.05;4.50;;;;;;;25.30;100.00;98831.66;4215316;33;20132;-69
2022/06/06 11:15:00;;;;;;;4.72;3.95;;;;;;;26.09;100.00;98853.75;4238517;33;20063;-67
2022/06/06 11:18:05;;;;;;;4.22;3.65;;;;;;;26.07;100.00;98849.75;4237982;33;20530;-68
2022/06/06 11:20:56;;;;;;;6.82;3.83;;;;;;;25.78;100.00;98854.53;4232755;33;20070;-69
2022/06/06 11:23:23;;;;;;;7.68;3.75;;;;;;;25.93;100.00;98811.59;4216762;33;20042;-71
2022/06/06 11:29:30;;;;;;;4.65;4.07;;;;;;;26.18;98.53;98850.78;4239822;33;20438;-67
2022/06/06 11:32:24;;;;;;;3.42;3.22;;;;;;;26.79;100.00;98852.19;4237713;33;20091;-69
2022/06/06 11:35:16;;;;;;;6.57;4.07;;;;;;;26.56;96.73;98848.50;4236509;33;20053;-69
2022/06/06 11:38:13;;;;;;;8.70;3.67;;;;;;;27.88;92.31;98828.13;4233260;33;20712;-69
2022/06/06 11:41:20;;;;;;;9.65;3.75;;;;;;;26.82;94.65;98853.41;4232642;33;20084;-67
2022/06/06 11:43:58;;;;;;;4.10;3.80;;;;;;;25.73;100.00;98847.31;4223271;34;20106;-67
2022/06/06 11:46:54;;;;;;;4.10;3.55;;;;;;;25.22;100.00;98841.66;4224233;34;20124;-70
2022/06/06 11:49:58;;;;;;;3.97;3.53;;;;;;;24.82;100.00;98842.50;4186271;34;20098;-67
2022/06/06 11:52:46;;;;;;;4.43;4.00;;;;;;;24.74;100.00;98837.94;4225654;34;20091;-67
2022/06/06 11:55:38;;;;;;;16.27;4.18;;;;;;;24.78;100.00;98847.09;4226032;34;20047;-67
2022/06/06 11:58:21;;;;;;;8.55;3.72;;;;;;;25.30;100.00;98804.87;4224955;34;20101;-67
2022/06/06 12:00:57;;;;;;;4.32;3.78;;;;;;;25.59;100.00;98802.88;4225373;34;20544;-67
2022/06/06 12:03:35;;;;;;;4.05;3.75;;;;;;;26.12;100.00;98823.84;4226036;34;20050;-68
2022/06/06 12:06:25;;;;;;;4.68;4.12;;;;;;;26.25;100.00;98833.63;4228844;33;20051;-67
2022/06/06 12:09:20;;;;;;;5.22;3.62;;;;;;;25.82;100.00;98832.59;4237612;33;20852;-68
2022/06/06 12:11:58;;;;;;;4.40;4.10;;;;;;;26.41;100.00;98831.62;4239982;33;20093;-68
2022/06/06 12:14:31;;;;;;;4.15;3.67;;;;;;;25.71;100.00;98827.59;4227685;33;20143;-68
2022/06/06 12:17:16;;;;;;;6.20;3.37;;;;;;;25.71;100.00;98832.31;4225377;33;20409;-68
2022/06/06 12:20:19;;;;;;;4.18;3.78;;;;;;;25.92;100.00;98832.03;4223723;34;20047;-68
2022/06/06 12:23:17;;;;;;;4.03;3.65;;;;;;;25.68;100.00;98830.28;4237596;33;20486;-68
2022/06/06 12:25:56;;;;;;;4.32;3.97;;;;;;;25.52;100.00;98820.03;4239326;33;20038;-68
2022/06/06 12:28:56;;;;;;;3.97;3.55;;;;;;;25.29;100.00;98784.03;4239252;33;20050;-68
2022/06/06 12:31:44;;;;;;;11.57;4.00;;;;;;;25.61;100.00;98811.59;4238960;33;20042;-68
2022/06/06 12:34:17;;;;;;;6.35;3.50;;;;;;;25.59;100.00;98813.88;4237942;33;20080;-68
2022/06/06 12:37:13;;;;;;;5.30;3.42;;;;;;;25.59;100.00;98811.13;4238738;33;20035;-68
2022/06/06 12:39:58;;;;;;;6.25;4.40;;;;;;;25.69;100.00;98796.81;4237934;33;20051;-69
2022/06/06 12:42:43;;;;;;;5.20;3.87;;;;;;;25.23;100.00;98807.44;4237730;33;20038;-68
2022/06/06 12:45:29;;;;;;;7.20;3.72;;;;;;;25.61;100.00;98800.56;4238290;33;20092;-69
2022/06/06 12:48:17;;;;;;;3.97;3.70;;;;;;;25.81;100.00;98800.66;4238815;33;20368;-68
2022/06/06 12:50:49;;;;;;;8.75;3.85;;;;;;;26.24;100.00;98796.94;4227090;33;20046;-68
2022/06/06 12:53:44;;;;;;;5.25;3.47;;;;;;;26.72;100.00;98796.78;4240314;33;20144;-68
2022/06/06 12:56:26;;;;;;;4.22;3.85;;;;;;;26.53;99.73;98771.91;4239454;33;20083;-68